Time;durP1;ratioP1;P1;durP2;ratioP2;P2;SDS_P1;SDS_P2;PMS_P1;PMS_P2;Temp;Humidity;BMP_temperature;BMP_pressure;BME280_temperature;BME280_humidity;BME280_pressure;Samples;Min_cycle;Max_cycle;Signal;HPM_P1;HPM_P2
2022/12/01 00:00:45;;;;;;;2.30;1.58;;;;;;;3.97;100.00;62409.56;5026250;28;20222;-78
2022/12/01 00:03:12;;;;;;;1.38;1.38;;;;;;;4.02;100.00;62415.19;5025370;28;20209;-78
2022/12/01 00:05:40;;;;;;;1.70;1.60;;;;;;;4.03;100.00;62413.72;5024688;28;20242;-78
2022/12/01 00:08:08;;;;;;;1.45;1.35;;;;;;;4.06;100.00;62418.81;5025033;28;20245;-77
2022/12/01 00:10:34;;;;;;;1.80;1.70;;;;;;;3.98;100.00;62403.53;5024795;28;20218;-77
2022/12/01 00:13:04;;;;;;;1.33;1.30;;;;;;;4.10;100.00;62417.88;5025550;28;20367;-78
2022/12/01 00:15:33;;;;;;;2.42;1.63;;;;;;;4.03;100.00;62415.72;5014902;28;20219;-78
2022/12/01 00:18:01;;;;;;;1.13;1.13;;;;;;;4.07;100.00;62419.84;5024042;28;20550;-78
2022/12/01 00:20:28;;;;;;;1.58;1.48;;;;;;;4.15;100.00;62425.56;5027755;28;20241;-78
2022/12/01 00:22:57;;;;;;;0.98;0.98;;;;;;;4.19;100.00;62432.72;5027075;28;20205;-77
2022/12/01 00:25:24;;;;;;;1.23;1.23;;;;;;;4.18;100.00;62426.63;5024486;28;20257;-77
2022/12/01 00:27:52;;;;;;;3.53;1.10;;;;;;;4.13;100.00;62426.53;5025406;28;20511;-78
2022/12/01 00:30:20;;;;;;;1.55;1.20;;;;;;;4.12;100.00;62420.47;5025445;28;20219;-78
2022/12/01 00:32:48;;;;;;;0.90;0.90;;;;;;;4.15;100.00;62431.09;5025969;28;20253;-79
2022/12/01 00:35:16;;;;;;;1.17;1.08;;;;;;;4.22;100.00;62432.75;5025099;28;20669;-77
2022/12/01 00:37:43;;;;;;;2.08;1.17;;;;;;;4.10;100.00;62422.94;5024227;28;20226;-77
2022/12/01 00:40:13;;;;;;;1.60;1.17;;;;;;;4.07;100.00;62417.31;5025688;28;20206;-77
2022/12/01 00:42:40;;;;;;;0.95;0.95;;;;;;;4.10;100.00;62420.94;5025222;28;20402;-81
2022/12/01 00:45:08;;;;;;;1.17;1.17;;;;;;;4.23;100.00;62431.78;5023693;28;20226;-78
2022/12/01 00:47:36;;;;;;;1.48;1.38;;;;;;;4.03;100.00;62415.72;5024572;28;20198;-77
2022/12/01 00:50:03;;;;;;;1.40;1.40;;;;;;;3.98;100.00;62411.09;5024477;28;20202;-77
2022/12/01 00:52:30;;;;;;;1.58;1.48;;;;;;;3.98;100.00;62408.06;5024272;28;20203;-78
2022/12/01 00:54:56;;;;;;;1.40;1.30;;;;;;;4.00;100.00;62407.59;5026074;28;20204;-77
2022/12/01 00:57:25;;;;;;;2.20;1.27;;;;;;;4.15;100.00;62428.06;5024764;28;20234;-77
2022/12/01 00:59:52;;;;;;;1.48;1.38;;;;;;;4.19;100.00;62427.16;5024186;28;20199;-77
2022/12/01 01:02:19;;;;;;;1.38;1.27;;;;;;;4.28;100.00;62436.91;5024070;28;20226;-78
2022/12/01 01:04:46;;;;;;;0.95;0.95;;;;;;;4.26;100.00;62436.88;5023525;28;20202;-76
2022/12/01 01:07:13;;;;;;;1.17;1.10;;;;;;;4.19;100.00;62432.19;5024419;28;20228;-76
2022/12/01 01:09:39;;;;;;;1.25;1.15;;;;;;;4.22;100.00;62435.28;5023954;28;20241;-77
2022/12/01 01:12:06;;;;;;;1.30;1.20;;;;;;;4.26;100.00;62434.34;5023711;28;20308;-77
2022/12/01 01:14:35;;;;;;;1.23;1.08;;;;;;;4.31;100.00;62442.03;5023910;28;20431;-77
2022/12/01 01:17:04;;;;;;;0.90;0.90;;;;;;;4.36;100.00;62447.16;5023981;28;20231;-77
2022/12/01 01:19:31;;;;;;;1.20;1.10;;;;;;;4.24;100.00;62435.34;5022227;28;20245;-76
2022/12/01 01:21:58;;;;;;;2.75;1.08;;;;;;;4.17;100.00;62430.66;5025405;28;20248;-77
2022/12/01 01:24:24;;;;;;;0.90;0.90;;;;;;;4.11;100.00;62418.91;5024029;28;20199;-77
2022/12/01 01:26:52;;;;;;;1.10;1.10;;;;;;;4.15;100.00;62423.03;5027927;28;20244;-78
2022/12/01 01:29:19;;;;;;;1.45;1.17;;;;;;;4.21;100.00;62432.22;5026930;28;20199;-78
2022/12/01 01:31:47;;;;;;;0.80;0.80;;;;;;;4.25;100.00;62435.84;5028354;28;20593;-78
2022/12/01 01:34:14;;;;;;;1.30;1.20;;;;;;;4.26;100.00;62434.84;5027186;28;20273;-78
2022/12/01 01:36:41;;;;;;;1.60;1.50;;;;;;;4.32;100.00;62446.09;5027431;28;20238;-77
2022/12/01 01:39:07;;;;;;;1.50;1.40;;;;;;;4.33;100.00;62441.56;5026716;28;20274;-76
2022/12/01 01:41:35;;;;;;;1.13;1.13;;;;;;;4.16;100.00;62427.09;5028253;28;20435;-77
2022/12/01 01:44:02;;;;;;;1.00;1.00;;;;;;;4.35;100.00;62453.69;5007477;28;20223;-76
2022/12/01 01:46:31;;;;;;;0.85;0.85;;;;;;;4.18;100.00;62426.63;5014675;28;20226;-77
2022/12/01 01:49:02;;;;;;;1.00;1.00;;;;;;;4.30;100.00;62438.47;5027411;28;20198;-78
2022/12/01 01:51:33;;;;;;;2.63;1.00;;;;;;;4.23;100.00;62436.81;5028107;28;20222;-77
2022/12/01 01:54:05;;;;;;;1.42;1.15;;;;;;;4.38;100.00;62444.69;5027446;28;20262;-76
2022/12/01 01:56:32;;;;;;;1.00;1.00;;;;;;;4.51;100.00;62460.59;5017537;28;20246;-77
2022/12/01 01:59:00;;;;;;;0.75;0.75;;;;;;;4.60;100.00;62471.88;5024689;28;20249;-77
2022/12/01 02:01:27;;;;;;;0.60;0.60;;;;;;;4.61;100.00;62472.88;5027486;28;20360;-77
2022/12/01 02:03:56;;;;;;;0.50;0.50;;;;;;;4.67;100.00;62476.56;5027650;28;20194;-77
2022/12/01 02:06:24;;;;;;;0.40;0.40;;;;;;;4.81;100.00;62493.47;5027318;28;20238;-76
2022/12/01 02:08:51;;;;;;;0.30;0.30;;;;;;;4.89;100.00;62498.66;5026904;28;20210;-77
2022/12/01 02:11:47;;;;;;;0.30;0.30;;;;;;;4.93;100.00;62505.31;5028430;28;20219;-77
2022/12/01 02:14:26;;;;;;;0.30;0.30;;;;;;;4.94;100.00;62506.88;5024000;28;20203;-77
2022/12/01 02:17:01;;;;;;;0.25;0.25;;;;;;;4.78;100.00;62492.41;5011791;28;20290;-78
2022/12/01 02:19:49;;;;;;;0.22;0.22;;;;;;;5.03;100.00;62515.63;5027183;28;20198;-76
2022/12/01 02:22:26;;;;;;;0.30;0.30;;;;;;;5.11;100.00;62521.84;5027781;28;20261;-77
2022/12/01 02:25:21;;;;;;;0.68;0.40;;;;;;;5.14;100.00;62526.94;5008096;28;20507;-78
2022/12/01 02:28:21;;;;;;;0.40;0.40;;;;;;;5.12;100.00;62525.41;5015474;28;20207;-77
2022/12/01 02:30:54;;;;;;;0.10;0.10;;;;;;;5.21;100.00;62529.13;5012288;28;20230;-78
2022/12/01 02:33:27;;;;;;;0.20;0.20;;;;;;;5.23;100.00;62536.22;5022570;28;20294;-78
2022/12/01 02:36:00;;;;;;;0.15;0.15;;;;;;;5.21;100.00;62534.16;5027576;28;20230;-77
2022/12/01 02:38:31;;;;;;;0.32;0.22;;;;;;;5.33;100.00;62546.53;5026889;28;20245;-77
2022/12/01 02:41:09;;;;;;;1.65;0.20;;;;;;;5.37;100.00;62548.63;5028528;28;20225;-76
2022/12/01 02:43:47;;;;;;;0.28;0.28;;;;;;;5.45;100.00;62556.34;5027045;28;20198;-77
2022/12/01 02:46:22;;;;;;;0.80;0.80;;;;;;;5.48;100.00;62562.47;5026418;28;20218;-77
2022/12/01 02:48:53;;;;;;;0.70;0.70;;;;;;;5.18;100.00;62529.06;5026522;28;20262;-77
2022/12/01 02:51:24;;;;;;;1.33;1.33;;;;;;;5.15;100.00;62525.97;5026949;28;20250;-78
2022/12/01 02:53:52;;;;;;;1.70;1.20;;;;;;;4.94;100.00;62506.34;5026791;28;20195;-77
2022/12/01 02:56:22;;;;;;;1.13;1.02;;;;;;;4.88;100.00;62500.16;5027036;28;20596;-76
2022/12/01 02:58:49;;;;;;;1.00;1.00;;;;;;;4.80;100.00;62494.97;5026058;28;20199;-77
2022/12/01 03:01:31;;;;;;;1.13;1.13;;;;;;;4.61;100.00;62470.88;5026620;28;20218;-77
2022/12/01 03:04:10;;;;;;;1.10;1.10;;;;;;;4.61;100.00;62470.88;5025060;28;20389;-77
2022/12/01 03:06:48;;;;;;;1.00;1.00;;;;;;;4.39;100.00;62452.75;5026054;28;20223;-77
2022/12/01 03:09:26;;;;;;;1.17;1.17;;;;;;;4.29;100.00;62437.97;5027300;28;20464;-77
2022/12/01 03:12:04;;;;;;;0.57;0.57;;;;;;;4.40;100.00;62451.78;5026737;28;20218;-77
2022/12/01 03:14:39;;;;;;;0.73;0.73;;;;;;;4.43;100.00;62451.84;5025798;28;20203;-77
2022/12/01 03:17:17;;;;;;;0.63;0.63;;;;;;;4.36;100.00;62447.16;5025759;28;20237;-79
2022/12/01 03:19:48;;;;;;;0.93;0.93;;;;;;;4.32;100.00;62445.56;5028548;28;20213;-78
2022/12/01 03:22:23;;;;;;;0.95;0.95;;;;;;;4.27;100.00;62437.91;5029163;28;20218;-78
2022/12/01 03:24:54;;;;;;;1.70;0.73;;;;;;;4.41;100.00;62454.81;5027882;28;20270;-78
2022/12/01 03:27:29;;;;;;;0.95;0.95;;;;;;;4.34;100.00;62442.59;5027834;28;20198;-80
2022/12/01 03:30:00;;;;;;;0.80;0.80;;;;;;;4.09;100.00;62419.38;5026509;28;20277;-78
2022/12/01 03:32:33;;;;;;;0.98;0.98;;;;;;;4.23;100.00;62433.78;5027832;28;20374;-80
2022/12/01 03:35:05;;;;;;;0.85;0.85;;;;;;;4.23;100.00;62434.28;5027191;28;20500;-79
2022/12/01 03:37:41;;;;;;;3.53;1.05;;;;;;;4.33;100.00;62444.09;5028673;28;20230;-80
2022/12/01 03:40:12;;;;;;;1.20;1.10;;;;;;;4.39;100.00;62450.25;5027818;28;20201;-80
2022/12/01 03:42:44;;;;;;;0.85;0.85;;;;;;;4.33;100.00;62446.59;5028621;28;20214;-79
2022/12/01 03:45:17;;;;;;;1.25;1.15;;;;;;;4.41;100.00;62450.31;5027404;28;20206;-79
2022/12/01 03:47:46;;;;;;;0.80;0.80;;;;;;;4.29;100.00;62439.97;5027773;28;20202;-79
2022/12/01 03:50:14;;;;;;;1.90;1.27;;;;;;;4.35;100.00;62451.16;5028383;28;20257;-80
2022/12/01 03:52:49;;;;;;;1.70;1.33;;;;;;;4.26;100.00;62436.88;5028643;28;20205;-79
2022/12/01 03:55:22;;;;;;;1.88;1.52;;;;;;;4.03;100.00;62415.72;5008329;28;20297;-81
2022/12/01 03:57:56;;;;;;;4.55;1.40;;;;;;;4.01;100.00;62411.16;5010931;28;20282;-80
2022/12/01 04:00:24;;;;;;;1.88;1.52;;;;;;;3.97;100.00;62412.09;5027655;28;20265;-81
2022/12/01 04:02:56;;;;;;;2.47;1.27;;;;;;;3.95;100.00;62405.47;5027179;28;20210;-79
2022/12/01 04:05:24;;;;;;;1.13;1.00;;;;;;;3.96;100.00;62406.00;5028715;28;20261;-78
2022/12/01 04:07:51;;;;;;;1.30;1.20;;;;;;;4.09;100.00;62416.88;5026683;28;20233;-80
2022/12/01 04:10:18;;;;;;;3.50;1.20;;;;;;;4.08;100.00;62418.88;5027885;28;20265;-80
2022/12/01 04:12:44;;;;;;;1.23;1.02;;;;;;;4.00;100.00;62410.13;5026428;28;20209;-81
2022/12/01 04:15:13;;;;;;;2.15;2.03;;;;;;;3.91;100.00;62401.38;5028307;28;20258;-78
2022/12/01 04:17:42;;;;;;;14.73;6.63;;;;;;;3.73;100.00;62380.34;5026333;28;20237;-77
2022/12/01 04:20:13;;;;;;;2.63;1.90;;;;;;;3.81;100.00;62391.09;5022125;28;20205;-77
2022/12/01 04:22:40;;;;;;;1.67;1.58;;;;;;;3.83;100.00;62390.13;5025791;28;20222;-77
2022/12/01 04:25:09;;;;;;;2.58;2.38;;;;;;;3.87;100.00;62402.28;5025314;28;20199;-80
2022/12/01 04:27:36;;;;;;;2.63;2.40;;;;;;;3.80;100.00;62389.53;5025891;28;20530;-79
2022/12/01 04:30:04;;;;;;;4.70;2.15;;;;;;;3.74;100.00;62383.91;5029686;28;20197;-78
2022/12/01 04:32:32;;;;;;;1.88;1.77;;;;;;;3.80;100.00;62390.06;5027566;28;20203;-78
2022/12/01 04:34:59;;;;;;;1.50;1.40;;;;;;;3.78;100.00;62390.50;5028227;28;20206;-78
2022/12/01 04:37:28;;;;;;;1.80;1.70;;;;;;;3.83;100.00;62395.66;5029580;28;20408;-78
2022/12/01 04:39:54;;;;;;;1.73;1.63;;;;;;;3.71;100.00;62378.28;5026725;28;20253;-79
2022/12/01 04:42:21;;;;;;;1.52;1.42;;;;;;;3.78;100.00;62387.50;5025988;28;20203;-78
2022/12/01 04:44:48;;;;;;;2.05;1.95;;;;;;;3.81;100.00;62388.06;5026018;28;20499;-78
2022/12/01 04:47:16;;;;;;;4.32;3.75;;;;;;;3.61;100.00;62375.56;5015994;28;20250;-77
2022/12/01 04:49:43;;;;;;;3.35;2.63;;;;;;;3.71;100.00;62380.31;5016575;28;20202;-79
2022/12/01 04:52:10;;;;;;;2.00;1.90;;;;;;;3.63;100.00;62372.56;5023490;28;20222;-77
2022/12/01 04:54:39;;;;;;;6.63;3.00;;;;;;;3.64;100.00;62373.09;5025312;28;20389;-78
2022/12/01 04:57:06;;;;;;;5.15;4.65;;;;;;;3.63;100.00;62369.53;5025617;28;20226;-78
2022/12/01 04:59:33;;;;;;;4.80;4.07;;;;;;;3.72;100.00;62378.81;5027177;28;20209;-78
2022/12/01 05:02:01;;;;;;;3.53;3.33;;;;;;;3.74;100.00;62388.94;5029414;28;20249;-77
2022/12/01 05:04:30;;;;;;;3.63;3.42;;;;;;;3.65;100.00;62372.13;5026262;28;20197;-79
2022/12/01 05:06:57;;;;;;;4.38;4.07;;;;;;;3.60;100.00;62369.50;5030779;28;20222;-80
2022/12/01 05:09:24;;;;;;;4.22;3.92;;;;;;;3.49;100.00;62361.22;5028094;28;20203;-80
2022/12/01 05:11:53;;;;;;;3.58;3.28;;;;;;;3.50;100.00;62357.19;5017474;28;20221;-81
2022/12/01 05:14:20;;;;;;;2.40;2.20;;;;;;;3.63;100.00;62372.56;5020578;28;20205;-78
2022/12/01 05:16:47;;;;;;;3.10;1.92;;;;;;;3.65;100.00;62371.59;5027854;28;20413;-79
2022/12/01 05:21:58;;;;;;;2.55;2.35;;;;;;;3.69;100.00;62373.72;5031594;28;20244;-79
2022/12/01 05:24:25;;;;;;;3.17;2.92;;;;;;;3.60;100.00;62368.97;5016298;28;20222;-78
2022/12/01 05:26:54;;;;;;;2.50;2.30;;;;;;;3.53;100.00;62360.31;5013562;28;20245;-78
2022/12/01 05:29:21;;;;;;;2.05;1.95;;;;;;;3.46;100.00;62350.59;5027365;28;20207;-78
2022/12/01 05:31:48;;;;;;;2.20;2.10;;;;;;;3.50;100.00;62359.72;5028719;28;20229;-79
2022/12/01 05:34:15;;;;;;;1.88;1.77;;;;;;;3.52;100.00;62361.25;5029803;28;20207;-80
2022/12/01 05:36:42;;;;;;;2.30;2.08;;;;;;;3.41;100.00;62350.47;5029832;28;20265;-77
2022/12/01 05:39:09;;;;;;;2.75;2.47;;;;;;;3.39;100.00;62350.94;5028631;28;20233;-77
2022/12/01 05:41:36;;;;;;;2.53;2.22;;;;;;;3.55;100.00;62362.34;5029251;28;20227;-80
2022/12/01 05:44:05;;;;;;;1.70;1.60;;;;;;;3.51;100.00;62360.25;5029131;28;20201;-78
2022/12/01 05:46:32;;;;;;;1.60;1.50;;;;;;;3.46;100.00;62353.09;5031442;28;20245;-78
2022/12/01 05:48:59;;;;;;;4.47;2.47;;;;;;;3.41;100.00;62350.47;5030088;28;20225;-78
2022/12/01 05:51:26;;;;;;;1.90;1.65;;;;;;;3.47;100.00;62356.13;5030245;28;20219;-80
2022/12/01 05:53:53;;;;;;;2.30;1.85;;;;;;;3.54;100.00;62360.81;5029409;28;20261;-78
2022/12/01 05:56:21;;;;;;;3.10;2.78;;;;;;;3.66;100.00;62372.63;5028166;28;20233;-78
2022/12/01 05:58:48;;;;;;;7.05;4.13;;;;;;;3.63;100.00;62370.06;5028261;28;20230;-77
2022/12/01 06:01:17;;;;;;;4.63;3.00;;;;;;;3.48;100.00;62354.63;5027808;28;20218;-78
2022/12/01 06:03:43;;;;;;;3.20;2.55;;;;;;;3.67;100.00;62373.66;5028211;28;20199;-78
2022/12/01 06:06:10;;;;;;;3.15;2.63;;;;;;;3.77;100.00;62386.97;5028264;28;20223;-78
2022/12/01 06:08:37;;;;;;;2.85;2.42;;;;;;;3.69;100.00;62375.72;5027938;28;20199;-77
2022/12/01 06:11:04;;;;;;;9.60;3.25;;;;;;;3.79;100.00;62388.53;5027414;28;20527;-78
2022/12/01 06:13:31;;;;;;;5.18;3.22;;;;;;;3.68;100.00;62380.22;5027423;28;20265;-77
2022/12/01 06:15:59;;;;;;;2.60;2.00;;;;;;;3.63;100.00;62372.56;5027176;28;20454;-78
2022/12/01 06:18:31;;;;;;;6.88;2.72;;;;;;;3.70;100.00;62379.25;5028993;28;20562;-80
2022/12/01 06:20:58;;;;;;;5.78;3.10;;;;;;;3.63;100.00;62367.53;5028988;28;20222;-79
2022/12/01 06:23:25;;;;;;;2.60;2.40;;;;;;;3.41;100.00;62355.00;5028047;28;20433;-78
2022/12/01 06:25:52;;;;;;;2.33;2.13;;;;;;;3.57;100.00;62371.44;5028112;28;20362;-78
2022/12/01 06:28:19;;;;;;;2.58;2.05;;;;;;;3.67;100.00;62374.19;5029034;28;20209;-78
2022/12/01 06:30:46;;;;;;;7.05;3.00;;;;;;;3.49;100.00;62361.22;5028859;28;20222;-78
2022/12/01 06:33:13;;;;;;;3.22;2.47;;;;;;;3.37;100.00;62343.31;5027858;28;20233;-77
2022/12/01 06:35:41;;;;;;;2.20;1.88;;;;;;;3.34;100.00;62343.28;5028020;28;20233;-78
2022/12/01 06:38:08;;;;;;;4.75;3.22;;;;;;;3.34;100.00;62345.78;5026862;28;20230;-78
2022/12/01 06:40:35;;;;;;;5.68;3.53;;;;;;;3.29;100.00;62340.66;5027025;28;20346;-77
2022/12/01 06:43:02;;;;;;;12.75;4.53;;;;;;;3.48;100.00;62357.16;5026926;28;20198;-78
2022/12/01 06:45:30;;;;;;;4.65;2.65;;;;;;;3.29;100.00;62338.16;5026801;28;20527;-77
2022/12/01 06:47:58;;;;;;;2.67;2.33;;;;;;;3.40;100.00;62346.91;5026980;28;20258;-77
2022/12/01 06:50:25;;;;;;;1.58;1.17;;;;;;;3.46;100.00;62355.63;5028490;28;20223;-78
2022/12/01 06:52:54;;;;;;;1.30;1.20;;;;;;;3.50;100.00;62357.19;5027031;28;20191;-78
2022/12/01 06:55:22;;;;;;;1.92;1.83;;;;;;;3.60;100.00;62366.47;5027697;28;20229;-77
2022/12/01 06:57:48;;;;;;;1.58;1.48;;;;;;;3.73;100.00;62380.34;5027123;28;20231;-78
2022/12/01 07:00:16;;;;;;;1.98;1.77;;;;;;;3.67;100.00;62376.19;5028576;28;20242;-78
2022/12/01 07:02:43;;;;;;;2.40;2.20;;;;;;;3.76;100.00;62383.44;5027287;28;20202;-78
2022/12/01 07:05:10;;;;;;;2.05;1.92;;;;;;;3.64;100.00;62370.59;5027201;28;20199;-78
2022/12/01 07:07:38;;;;;;;1.73;1.63;;;;;;;3.60;100.00;62366.47;5026681;28;20202;-76
2022/12/01 07:10:09;;;;;;;3.17;1.67;;;;;;;3.63;100.00;62374.56;5027088;28;20269;-78
2022/12/01 07:12:36;;;;;;;2.17;1.25;;;;;;;3.48;100.00;62360.19;5026821;28;20198;-77
2022/12/01 07:15:03;;;;;;;1.02;1.02;;;;;;;3.54;100.00;62360.81;5028890;28;20210;-78
2022/12/01 07:17:30;;;;;;;1.58;1.58;;;;;;;3.66;100.00;62370.13;5027405;28;20201;-77
2022/12/01 07:19:57;;;;;;;1.70;1.58;;;;;;;3.69;100.00;62376.25;5025744;28;20201;-77
2022/12/01 07:22:25;;;;;;;1.35;1.25;;;;;;;3.66;100.00;62378.19;5027008;28;20206;-78
2022/12/01 07:24:52;;;;;;;0.95;0.95;;;;;;;3.56;100.00;62362.84;5027078;28;20212;-78
2022/12/01 07:27:20;;;;;;;1.17;1.15;;;;;;;3.46;100.00;62353.09;5026298;28;20539;-78
2022/12/01 07:29:48;;;;;;;1.60;1.50;;;;;;;3.48;100.00;62357.69;5027200;28;20206;-77
2022/12/01 07:32:16;;;;;;;1.73;1.63;;;;;;;3.31;100.00;62339.69;5026329;28;20226;-77
2022/12/01 07:34:45;;;;;;;1.95;1.85;;;;;;;3.39;100.00;62340.34;5026050;28;20203;-77
2022/12/01 07:37:12;;;;;;;3.22;2.92;;;;;;;3.50;100.00;62361.72;5026292;28;20218;-77
2022/12/01 07:39:39;;;;;;;2.53;2.35;;;;;;;3.64;100.00;62378.66;5025529;28;20262;-77
2022/12/01 07:42:06;;;;;;;2.40;2.17;;;;;;;3.67;100.00;62376.19;5026822;28;20267;-77
2022/12/01 07:44:35;;;;;;;4.00;1.98;;;;;;;3.69;100.00;62380.75;5025897;28;20209;-77
2022/12/01 07:47:02;;;;;;;2.97;2.75;;;;;;;3.47;100.00;62358.63;5007567;28;20555;-78
2022/12/01 07:49:29;;;;;;;3.63;3.05;;;;;;;3.54;100.00;62363.84;5007657;28;20220;-77
2022/12/01 07:51:56;;;;;;;3.90;2.97;;;;;;;3.60;100.00;62372.00;5006156;28;20230;-76
2022/12/01 07:54:24;;;;;;;5.05;2.85;;;;;;;3.53;100.00;62362.28;5021374;28;20558;-77
2022/12/01 07:56:51;;;;;;;2.30;2.20;;;;;;;3.44;100.00;62356.06;5026292;28;20222;-77
2022/12/01 07:59:18;;;;;;;2.30;2.10;;;;;;;3.50;100.00;62362.22;5025701;28;20234;-79
2022/12/01 08:01:46;;;;;;;1.67;1.58;;;;;;;3.39;100.00;62348.41;5025316;28;20224;-77
2022/12/01 08:04:16;;;;;;;2.10;1.77;;;;;;;3.47;100.00;62354.13;5018243;28;20202;-77
2022/12/01 08:06:43;;;;;;;0.95;0.95;;;;;;;3.52;100.00;62361.25;5026576;28;20221;-77
2022/12/01 08:09:10;;;;;;;1.67;1.40;;;;;;;3.70;100.00;62376.75;5026675;28;20206;-77
2022/12/01 08:11:37;;;;;;;1.52;1.42;;;;;;;3.75;100.00;62382.41;5023925;28;20233;-77
2022/12/01 08:14:04;;;;;;;1.80;1.70;;;;;;;3.77;100.00;62384.47;5024248;28;20195;-77
2022/12/01 08:16:31;;;;;;;2.45;1.90;;;;;;;3.68;100.00;62375.19;5025198;28;20219;-78
2022/12/01 08:18:59;;;;;;;2.70;2.50;;;;;;;3.66;100.00;62375.16;5025931;28;20567;-77
2022/12/01 08:21:28;;;;;;;1.50;1.50;;;;;;;3.72;100.00;62378.81;5026167;28;20578;-77
2022/12/01 08:23:56;;;;;;;1.40;1.40;;;;;;;3.65;100.00;62374.13;5025802;28;20262;-77
2022/12/01 08:26:25;;;;;;;1.70;1.60;;;;;;;3.73;100.00;62385.38;5024563;28;20557;-77
2022/12/01 08:28:52;;;;;;;2.28;2.00;;;;;;;3.67;100.00;62381.72;5024140;28;20456;-77
2022/12/01 08:31:23;;;;;;;1.27;1.27;;;;;;;3.60;100.00;62368.97;5024722;28;20394;-77
2022/12/01 08:33:51;;;;;;;1.85;1.75;;;;;;;3.62;100.00;62371.56;5025234;28;20225;-76
2022/12/01 08:36:20;;;;;;;1.40;1.40;;;;;;;3.65;100.00;62372.13;5025444;28;20219;-77
2022/12/01 08:38:49;;;;;;;2.15;1.60;;;;;;;3.67;100.00;62376.69;5024892;28;20316;-77
2022/12/01 08:41:16;;;;;;;2.10;1.98;;;;;;;3.53;100.00;62362.81;5024822;28;20292;-77
2022/12/01 08:43:44;;;;;;;2.05;1.95;;;;;;;3.53;100.00;62362.28;5024343;28;20525;-77
2022/12/01 08:46:12;;;;;;;2.10;1.92;;;;;;;3.47;100.00;62356.13;5025250;28;20229;-76
2022/12/01 08:48:40;;;;;;;2.17;2.08;;;;;;;3.59;100.00;62365.44;5025223;28;20199;-77
2022/12/01 08:51:09;;;;;;;1.73;1.63;;;;;;;3.64;100.00;62371.09;5025761;28;20429;-76
2022/12/01 08:53:40;;;;;;;2.42;2.22;;;;;;;3.54;100.00;62361.31;5025472;28;20504;-76
2022/12/01 08:56:11;;;;;;;1.98;1.88;;;;;;;3.72;100.00;62383.84;5025410;28;20222;-78
2022/12/01 08:58:40;;;;;;;2.33;2.13;;;;;;;3.61;100.00;62367.50;5024022;28;20426;-77
2022/12/01 09:01:10;;;;;;;6.30;3.20;;;;;;;3.57;100.00;62368.41;5025889;28;20230;-78
2022/12/01 09:03:41;;;;;;;2.88;2.67;;;;;;;3.80;100.00;62389.53;5025540;28;20195;-78
2022/12/01 09:06:10;;;;;;;4.72;2.17;;;;;;;3.72;100.00;62381.84;5026044;28;20219;-76
2022/12/01 09:08:42;;;;;;;2.55;2.17;;;;;;;3.57;100.00;62366.41;5024951;28;20261;-78
2022/12/01 09:11:12;;;;;;;4.53;2.45;;;;;;;3.59;100.00;62365.44;5024974;28;20214;-77
2022/12/01 09:13:40;;;;;;;1.80;1.70;;;;;;;3.61;100.00;62368.00;5026012;28;20202;-77
2022/12/01 09:16:11;;;;;;;2.20;2.10;;;;;;;3.65;100.00;62371.59;5024889;28;20337;-76
2022/12/01 09:18:39;;;;;;;1.92;1.83;;;;;;;3.79;100.00;62383.47;5026174;28;20225;-77
2022/12/01 09:21:13;;;;;;;2.22;1.45;;;;;;;3.84;100.00;62393.66;5024909;28;20249;-77
2022/12/01 09:23:40;;;;;;;1.52;1.42;;;;;;;3.96;100.00;62403.47;5025044;28;20203;-77
2022/12/01 09:26:09;;;;;;;1.70;1.40;;;;;;;3.86;100.00;62396.25;5024280;28;20302;-77
2022/12/01 09:28:36;;;;;;;1.83;1.73;;;;;;;4.20;100.00;62430.69;5024109;28;20206;-77
2022/12/01 09:31:05;;;;;;;1.23;1.20;;;;;;;4.03;100.00;62416.25;5024490;28;20269;-76
2022/12/01 09:33:32;;;;;;;1.40;1.30;;;;;;;4.05;100.00;62413.28;5024004;28;20199;-76
2022/12/01 09:35:59;;;;;;;1.00;1.00;;;;;;;3.97;100.00;62412.59;5022990;28;20322;-77
2022/12/01 09:38:28;;;;;;;2.15;1.30;;;;;;;4.00;100.00;62402.56;5024101;28;20437;-78
2022/12/01 09:40:59;;;;;;;2.10;2.00;;;;;;;3.90;100.00;62397.31;5023789;28;20441;-77
2022/12/01 09:43:34;;;;;;;2.03;1.92;;;;;;;3.92;100.00;62399.88;5024314;28;20209;-79
2022/12/01 09:46:06;;;;;;;2.10;1.95;;;;;;;4.17;100.00;62425.63;5025817;28;20229;-77
2022/12/01 09:48:42;;;;;;;2.25;2.10;;;;;;;3.96;100.00;62400.97;5029895;28;20202;-78
2022/12/01 09:51:13;;;;;;;3.10;2.28;;;;;;;3.86;100.00;62390.69;5028687;28;20222;-78
2022/12/01 09:53:42;;;;;;;1.48;1.38;;;;;;;3.82;100.00;62389.09;5026540;28;20213;-77
2022/12/01 09:56:21;;;;;;;1.60;1.50;;;;;;;3.84;100.00;62398.69;5027273;28;20229;-78
2022/12/01 09:58:51;;;;;;;1.95;1.85;;;;;;;3.92;100.00;62404.41;5029304;28;20214;-77
2022/12/01 10:01:26;;;;;;;1.45;1.30;;;;;;;3.96;100.00;62408.53;5028694;28;20227;-79
2022/12/01 10:04:01;;;;;;;1.80;1.70;;;;;;;4.09;100.00;62419.88;5029215;28;20190;-77
2022/12/01 10:06:34;;;;;;;1.17;1.17;;;;;;;4.01;100.00;62411.16;5026831;28;20391;-76
2022/12/01 10:09:10;;;;;;;2.15;2.05;;;;;;;4.17;100.00;62427.63;5026398;28;20249;-76
2022/12/01 10:11:41;;;;;;;1.90;1.80;;;;;;;4.45;100.00;62456.94;5027095;28;20218;-77
2022/12/01 10:14:15;;;;;;;3.53;2.60;;;;;;;4.37;100.00;62446.19;5027434;28;20199;-77
2022/12/01 10:16:48;;;;;;;2.65;2.45;;;;;;;4.30;100.00;62438.97;5026906;28;20341;-77
2022/12/01 10:19:25;;;;;;;4.15;2.85;;;;;;;4.18;100.00;62429.16;5027563;28;20566;-76
2022/12/01 10:22:20;;;;;;;4.35;2.88;;;;;;;4.15;100.00;62423.03;5028798;28;20260;-77
2022/12/01 10:24:56;;;;;;;2.10;1.92;;;;;;;4.17;100.00;62427.63;5027288;28;20379;-77
2022/12/01 10:27:39;;;;;;;2.22;2.03;;;;;;;4.04;100.00;62414.25;5007619;28;20187;-78
2022/12/01 10:30:14;;;;;;;2.13;2.03;;;;;;;4.29;100.00;62437.44;5008288;28;20371;-77
2022/12/01 10:32:48;;;;;;;2.17;1.90;;;;;;;4.27;100.00;62435.91;5012138;28;20405;-77
2022/12/01 10:35:17;;;;;;;2.17;2.00;;;;;;;4.28;100.00;62436.41;5026528;28;20266;-76
2022/12/01 10:37:46;;;;;;;2.13;2.03;;;;;;;4.08;100.00;62415.81;5027369;28;20215;-77
2022/12/01 10:40:17;;;;;;;4.97;3.53;;;;;;;4.00;100.00;62410.13;5025947;28;20223;-78
2022/12/01 10:42:46;;;;;;;3.97;3.67;;;;;;;3.94;100.00;62401.41;5024526;28;20210;-76
2022/12/01 10:45:18;;;;;;;2.78;2.53;;;;;;;4.16;100.00;62422.06;5026935;28;20218;-77
2022/12/01 10:48:10;;;;;;;2.00;1.90;;;;;;;3.95;100.00;62407.50;5024930;28;20195;-77
2022/12/01 10:50:37;;;;;;;1.90;1.80;;;;;;;3.95;100.00;62405.47;5021608;28;20234;-77
2022/12/01 10:53:05;;;;;;;1.50;1.40;;;;;;;3.98;100.00;62406.06;5028057;28;20261;-78
2022/12/01 10:55:35;;;;;;;2.10;1.90;;;;;;;3.85;100.00;62395.19;5026819;28;20472;-77
2022/12/01 10:58:15;;;;;;;4.82;1.63;;;;;;;3.92;100.00;62404.41;5026652;28;20382;-77
2022/12/01 11:00:54;;;;;;;1.65;1.55;;;;;;;3.78;100.00;62388.00;5027118;28;20233;-79
2022/12/01 11:03:25;;;;;;;1.73;1.67;;;;;;;3.76;100.00;62382.91;5027445;28;20420;-77
2022/12/01 11:05:56;;;;;;;1.50;1.50;;;;;;;3.85;100.00;62392.69;5025560;28;20219;-78
2022/12/01 11:08:28;;;;;;;3.33;1.77;;;;;;;3.83;100.00;62395.16;5027675;28;20202;-77
2022/12/01 11:10:56;;;;;;;1.67;1.58;;;;;;;3.92;100.00;62404.41;5026680;28;20450;-78
2022/12/01 11:13:29;;;;;;;1.23;1.17;;;;;;;3.92;100.00;62404.91;5026778;28;20207;-76
2022/12/01 11:15:59;;;;;;;1.55;1.45;;;;;;;3.86;100.00;62393.72;5027503;28;20218;-78
2022/12/01 11:21:27;;;;;;;1.83;1.73;;;;;;;3.65;100.00;62374.13;4985835;28;20274;-79
2022/12/01 11:23:56;;;;;;;1.08;1.08;;;;;;;3.58;100.00;62369.94;5027305;28;20221;-78
2022/12/01 11:26:25;;;;;;;2.13;2.03;;;;;;;3.69;100.00;62376.25;5027065;28;20269;-77
2022/12/01 11:28:56;;;;;;;2.45;2.25;;;;;;;3.60;100.00;62366.47;5026523;28;20195;-77
2022/12/01 11:31:37;;;;;;;1.60;1.50;;;;;;;3.63;100.00;62375.09;5027309;28;20222;-78
2022/12/01 11:34:05;;;;;;;2.00;1.90;;;;;;;3.57;100.00;62363.91;5025841;28;20217;-78
2022/12/01 11:36:37;;;;;;;1.95;1.70;;;;;;;3.55;100.00;62366.88;5026554;28;20222;-77
2022/12/01 11:39:05;;;;;;;2.22;2.08;;;;;;;3.58;100.00;62369.44;5025525;28;20296;-78
2022/12/01 11:41:36;;;;;;;2.25;2.05;;;;;;;3.64;100.00;62376.13;5027931;28;20222;-79
2022/12/01 11:44:08;;;;;;;2.80;2.58;;;;;;;3.74;100.00;62380.84;5027128;28;20202;-78
2022/12/01 11:46:42;;;;;;;3.50;2.47;;;;;;;3.88;100.00;62398.31;5026803;28;20289;-77
2022/12/01 11:49:17;;;;;;;2.70;2.50;;;;;;;3.86;100.00;62395.72;5027727;28;20506;-79
2022/12/01 11:51:44;;;;;;;3.03;2.55;;;;;;;3.90;100.00;62397.31;5025776;28;20214;-77